sensor_id;sensor_type;location;lat;lon;timestamp;P1;durP1;ratioP1;P2;durP2;ratioP2
16354;SDS011;8287;51.644;8.494;2022-11-21T00:01:59;56.00;;;53.10;;
16354;SDS011;8287;51.644;8.494;2022-11-21T00:04:25;43.63;;;41.13;;
16354;SDS011;8287;51.644;8.494;2022-11-21T00:06:52;47.85;;;45.15;;
16354;SDS011;8287;51.644;8.494;2022-11-21T00:09:18;42.95;;;40.53;;
16354;SDS011;8287;51.644;8.494;2022-11-21T00:11:45;46.13;;;43.53;;
16354;SDS011;8287;51.644;8.494;2022-11-21T00:14:12;43.42;;;40.97;;
16354;SDS011;8287;51.644;8.494;2022-11-21T00:16:39;42.03;;;39.80;;
16354;SDS011;8287;51.644;8.494;2022-11-21T00:19:06;43.67;;;41.17;;
16354;SDS011;8287;51.644;8.494;2022-11-21T00:21:33;43.55;;;41.00;;
16354;SDS011;8287;51.644;8.494;2022-11-21T00:24:00;44.92;;;42.60;;
16354;SDS011;8287;51.644;8.494;2022-11-21T00:26:27;43.33;;;40.88;;
16354;SDS011;8287;51.644;8.494;2022-11-21T00:28:53;39.58;;;37.20;;
16354;SDS011;8287;51.644;8.494;2022-11-21T00:31:20;42.30;;;39.65;;
16354;SDS011;8287;51.644;8.494;2022-11-21T00:33:50;39.53;;;37.00;;
16354;SDS011;8287;51.644;8.494;2022-11-21T00:36:17;40.70;;;38.17;;
16354;SDS011;8287;51.644;8.494;2022-11-21T00:38:43;42.00;;;39.35;;
16354;SDS011;8287;51.644;8.494;2022-11-21T00:41:10;43.17;;;40.17;;
16354;SDS011;8287;51.644;8.494;2022-11-21T00:43:36;39.25;;;36.60;;
16354;SDS011;8287;51.644;8.494;2022-11-21T00:46:04;39.42;;;36.55;;
16354;SDS011;8287;51.644;8.494;2022-11-21T00:48:31;41.55;;;38.92;;
16354;SDS011;8287;51.644;8.494;2022-11-21T00:50:59;42.50;;;39.63;;
16354;SDS011;8287;51.644;8.494;2022-11-21T00:53:26;42.28;;;39.63;;
16354;SDS011;8287;51.644;8.494;2022-11-21T00:55:52;41.92;;;39.10;;
16354;SDS011;8287;51.644;8.494;2022-11-21T00:58:19;41.08;;;38.08;;
16354;SDS011;8287;51.644;8.494;2022-11-21T01:00:46;42.78;;;39.90;;
16354;SDS011;8287;51.644;8.494;2022-11-21T01:03:12;39.42;;;36.90;;
16354;SDS011;8287;51.644;8.494;2022-11-21T01:05:39;39.80;;;37.20;;
16354;SDS011;8287;51.644;8.494;2022-11-21T01:08:07;38.47;;;36.00;;
16354;SDS011;8287;51.644;8.494;2022-11-21T01:10:33;41.47;;;38.88;;
16354;SDS011;8287;51.644;8.494;2022-11-21T01:13:00;41.22;;;38.40;;
16354;SDS011;8287;51.644;8.494;2022-11-21T01:15:27;42.13;;;39.10;;
16354;SDS011;8287;51.644;8.494;2022-11-21T01:17:54;42.60;;;39.95;;
16354;SDS011;8287;51.644;8.494;2022-11-21T01:20:20;45.88;;;42.95;;
16354;SDS011;8287;51.644;8.494;2022-11-21T01:22:47;44.22;;;41.33;;
16354;SDS011;8287;51.644;8.494;2022-11-21T01:25:15;39.83;;;37.05;;
16354;SDS011;8287;51.644;8.494;2022-11-21T01:27:42;43.20;;;40.33;;
16354;SDS011;8287;51.644;8.494;2022-11-21T01:30:09;43.67;;;40.67;;
16354;SDS011;8287;51.644;8.494;2022-11-21T01:32:36;44.88;;;41.80;;
16354;SDS011;8287;51.644;8.494;2022-11-21T01:35:03;41.42;;;38.80;;
16354;SDS011;8287;51.644;8.494;2022-11-21T01:37:30;41.00;;;38.40;;
16354;SDS011;8287;51.644;8.494;2022-11-21T01:39:57;45.97;;;42.83;;
16354;SDS011;8287;51.644;8.494;2022-11-21T01:42:25;43.33;;;40.00;;
16354;SDS011;8287;51.644;8.494;2022-11-21T01:44:52;44.50;;;41.65;;
16354;SDS011;8287;51.644;8.494;2022-11-21T01:47:19;43.38;;;40.60;;
16354;SDS011;8287;51.644;8.494;2022-11-21T01:49:46;44.13;;;40.88;;
16354;SDS011;8287;51.644;8.494;2022-11-21T01:52:15;41.65;;;38.90;;
16354;SDS011;8287;51.644;8.494;2022-11-21T01:54:46;42.55;;;39.30;;
16354;SDS011;8287;51.644;8.494;2022-11-21T01:57:18;47.33;;;43.92;;
16354;SDS011;8287;51.644;8.494;2022-11-21T01:59:57;45.33;;;42.38;;
16354;SDS011;8287;51.644;8.494;2022-11-21T02:02:28;41.60;;;38.85;;
16354;SDS011;8287;51.644;8.494;2022-11-21T02:04:58;43.25;;;40.20;;
16354;SDS011;8287;51.644;8.494;2022-11-21T02:07:26;43.75;;;40.75;;
16354;SDS011;8287;51.644;8.494;2022-11-21T02:09:56;43.72;;;40.72;;
16354;SDS011;8287;51.644;8.494;2022-11-21T02:12:27;43.50;;;40.60;;
16354;SDS011;8287;51.644;8.494;2022-11-21T02:14:59;44.28;;;41.20;;
16354;SDS011;8287;51.644;8.494;2022-11-21T02:17:27;44.38;;;41.35;;
16354;SDS011;8287;51.644;8.494;2022-11-21T02:19:55;40.42;;;37.83;;
16354;SDS011;8287;51.644;8.494;2022-11-21T02:22:26;43.03;;;40.03;;
16354;SDS011;8287;51.644;8.494;2022-11-21T02:25:06;45.30;;;42.30;;
16354;SDS011;8287;51.644;8.494;2022-11-21T02:27:37;44.15;;;40.90;;
16354;SDS011;8287;51.644;8.494;2022-11-21T02:30:04;43.28;;;40.15;;
16354;SDS011;8287;51.644;8.494;2022-11-21T02:32:34;43.65;;;40.45;;
16354;SDS011;8287;51.644;8.494;2022-11-21T02:35:02;42.90;;;40.00;;
16354;SDS011;8287;51.644;8.494;2022-11-21T02:37:29;45.72;;;42.55;;
16354;SDS011;8287;51.644;8.494;2022-11-21T02:39:58;44.63;;;41.45;;
16354;SDS011;8287;51.644;8.494;2022-11-21T02:42:31;43.63;;;40.70;;
16354;SDS011;8287;51.644;8.494;2022-11-21T02:45:02;42.10;;;39.08;;
16354;SDS011;8287;51.644;8.494;2022-11-21T02:47:35;43.10;;;40.20;;
16354;SDS011;8287;51.644;8.494;2022-11-21T02:50:07;42.85;;;39.65;;
16354;SDS011;8287;51.644;8.494;2022-11-21T02:52:38;44.42;;;41.40;;
16354;SDS011;8287;51.644;8.494;2022-11-21T02:55:05;44.78;;;41.40;;
16354;SDS011;8287;51.644;8.494;2022-11-21T02:57:34;43.40;;;40.30;;
16354;SDS011;8287;51.644;8.494;2022-11-21T03:00:00;44.85;;;41.63;;
16354;SDS011;8287;51.644;8.494;2022-11-21T03:02:27;45.20;;;41.88;;
16354;SDS011;8287;51.644;8.494;2022-11-21T03:04:53;43.13;;;39.92;;
16354;SDS011;8287;51.644;8.494;2022-11-21T03:07:20;45.35;;;42.00;;
16354;SDS011;8287;51.644;8.494;2022-11-21T03:09:47;45.78;;;42.70;;
16354;SDS011;8287;51.644;8.494;2022-11-21T03:12:13;46.10;;;42.85;;
16354;SDS011;8287;51.644;8.494;2022-11-21T03:14:41;44.50;;;41.40;;
16354;SDS011;8287;51.644;8.494;2022-11-21T03:17:08;48.70;;;45.03;;
16354;SDS011;8287;51.644;8.494;2022-11-21T03:19:35;73.25;;;68.60;;
16354;SDS011;8287;51.644;8.494;2022-11-21T03:22:01;46.80;;;43.58;;
16354;SDS011;8287;51.644;8.494;2022-11-21T03:24:28;48.15;;;44.67;;
16354;SDS011;8287;51.644;8.494;2022-11-21T03:26:55;40.17;;;37.53;;
16354;SDS011;8287;51.644;8.494;2022-11-21T03:29:22;67.60;;;63.25;;
16354;SDS011;8287;51.644;8.494;2022-11-21T03:31:50;44.70;;;41.50;;
16354;SDS011;8287;51.644;8.494;2022-11-21T03:34:16;44.55;;;41.35;;
16354;SDS011;8287;51.644;8.494;2022-11-21T03:36:43;49.75;;;46.10;;
16354;SDS011;8287;51.644;8.494;2022-11-21T03:39:09;48.05;;;44.95;;
16354;SDS011;8287;51.644;8.494;2022-11-21T03:41:36;44.20;;;41.03;;
16354;SDS011;8287;51.644;8.494;2022-11-21T03:44:03;44.55;;;41.47;;
16354;SDS011;8287;51.644;8.494;2022-11-21T03:46:32;48.08;;;45.00;;
16354;SDS011;8287;51.644;8.494;2022-11-21T03:49:02;45.97;;;43.10;;
16354;SDS011;8287;51.644;8.494;2022-11-21T03:51:29;48.38;;;44.95;;
16354;SDS011;8287;51.644;8.494;2022-11-21T03:53:56;47.67;;;44.15;;
16354;SDS011;8287;51.644;8.494;2022-11-21T03:56:22;47.42;;;44.22;;
16354;SDS011;8287;51.644;8.494;2022-11-21T03:58:50;45.10;;;41.53;;
16354;SDS011;8287;51.644;8.494;2022-11-21T04:01:16;49.22;;;45.72;;
16354;SDS011;8287;51.644;8.494;2022-11-21T04:03:43;45.30;;;42.33;;
16354;SDS011;8287;51.644;8.494;2022-11-21T04:06:12;50.50;;;47.17;;
16354;SDS011;8287;51.644;8.494;2022-11-21T04:08:42;51.45;;;47.30;;
16354;SDS011;8287;51.644;8.494;2022-11-21T04:11:08;47.03;;;43.80;;
16354;SDS011;8287;51.644;8.494;2022-11-21T04:13:35;50.55;;;47.25;;
16354;SDS011;8287;51.644;8.494;2022-11-21T04:16:02;48.35;;;44.80;;
16354;SDS011;8287;51.644;8.494;2022-11-21T04:18:29;44.95;;;41.78;;
16354;SDS011;8287;51.644;8.494;2022-11-21T04:20:56;51.85;;;48.30;;
16354;SDS011;8287;51.644;8.494;2022-11-21T04:23:24;48.30;;;45.15;;
16354;SDS011;8287;51.644;8.494;2022-11-21T04:25:51;48.60;;;44.85;;
16354;SDS011;8287;51.644;8.494;2022-11-21T04:28:18;51.40;;;47.75;;
16354;SDS011;8287;51.644;8.494;2022-11-21T04:30:45;48.72;;;45.60;;
16354;SDS011;8287;51.644;8.494;2022-11-21T04:33:12;46.47;;;42.90;;
16354;SDS011;8287;51.644;8.494;2022-11-21T04:35:41;47.05;;;43.85;;
16354;SDS011;8287;51.644;8.494;2022-11-21T04:38:08;47.80;;;44.72;;
16354;SDS011;8287;51.644;8.494;2022-11-21T04:40:37;51.95;;;48.00;;
16354;SDS011;8287;51.644;8.494;2022-11-21T04:43:04;48.40;;;44.97;;
16354;SDS011;8287;51.644;8.494;2022-11-21T04:45:31;50.63;;;46.90;;
16354;SDS011;8287;51.644;8.494;2022-11-21T04:47:57;50.10;;;46.30;;
16354;SDS011;8287;51.644;8.494;2022-11-21T04:50:24;46.33;;;42.88;;
16354;SDS011;8287;51.644;8.494;2022-11-21T04:52:51;45.78;;;42.38;;
16354;SDS011;8287;51.644;8.494;2022-11-21T04:55:18;48.03;;;44.55;;
16354;SDS011;8287;51.644;8.494;2022-11-21T04:57:47;44.35;;;41.22;;
16354;SDS011;8287;51.644;8.494;2022-11-21T05:00:14;47.00;;;43.40;;
16354;SDS011;8287;51.644;8.494;2022-11-21T05:02:42;47.85;;;44.47;;
16354;SDS011;8287;51.644;8.494;2022-11-21T05:05:09;51.58;;;47.60;;
16354;SDS011;8287;51.644;8.494;2022-11-21T05:07:36;46.08;;;42.22;;
16354;SDS011;8287;51.644;8.494;2022-11-21T05:10:03;46.25;;;42.97;;
16354;SDS011;8287;51.644;8.494;2022-11-21T05:12:30;48.33;;;44.42;;
16354;SDS011;8287;51.644;8.494;2022-11-21T05:15:16;48.13;;;44.58;;
16354;SDS011;8287;51.644;8.494;2022-11-21T05:17:42;47.65;;;44.13;;
16354;SDS011;8287;51.644;8.494;2022-11-21T05:20:09;48.92;;;45.03;;
16354;SDS011;8287;51.644;8.494;2022-11-21T05:22:37;50.55;;;46.67;;
16354;SDS011;8287;51.644;8.494;2022-11-21T05:25:04;52.15;;;48.15;;
16354;SDS011;8287;51.644;8.494;2022-11-21T05:27:31;48.30;;;44.80;;
16354;SDS011;8287;51.644;8.494;2022-11-21T05:29:58;46.75;;;42.80;;
16354;SDS011;8287;51.644;8.494;2022-11-21T05:32:26;48.38;;;44.28;;
16354;SDS011;8287;51.644;8.494;2022-11-21T05:34:52;44.08;;;40.30;;
16354;SDS011;8287;51.644;8.494;2022-11-21T05:37:19;48.05;;;44.08;;
16354;SDS011;8287;51.644;8.494;2022-11-21T05:39:46;48.67;;;44.78;;
16354;SDS011;8287;51.644;8.494;2022-11-21T05:42:13;46.35;;;43.13;;
16354;SDS011;8287;51.644;8.494;2022-11-21T05:44:39;49.88;;;46.00;;
16354;SDS011;8287;51.644;8.494;2022-11-21T05:47:05;48.47;;;44.50;;
16354;SDS011;8287;51.644;8.494;2022-11-21T05:49:33;49.25;;;45.20;;
16354;SDS011;8287;51.644;8.494;2022-11-21T05:51:59;48.75;;;45.15;;
16354;SDS011;8287;51.644;8.494;2022-11-21T05:54:26;62.55;;;57.70;;
16354;SDS011;8287;51.644;8.494;2022-11-21T05:56:52;51.20;;;47.05;;
16354;SDS011;8287;51.644;8.494;2022-11-21T05:59:19;51.33;;;47.22;;
16354;SDS011;8287;51.644;8.494;2022-11-21T06:01:45;52.40;;;47.97;;
16354;SDS011;8287;51.644;8.494;2022-11-21T06:04:29;51.17;;;47.08;;
16354;SDS011;8287;51.644;8.494;2022-11-21T06:06:57;56.47;;;51.90;;
16354;SDS011;8287;51.644;8.494;2022-11-21T06:09:24;59.72;;;55.05;;
16354;SDS011;8287;51.644;8.494;2022-11-21T06:11:51;53.95;;;49.92;;
16354;SDS011;8287;51.644;8.494;2022-11-21T06:14:17;52.30;;;48.13;;
16354;SDS011;8287;51.644;8.494;2022-11-21T06:16:44;54.70;;;50.70;;
16354;SDS011;8287;51.644;8.494;2022-11-21T06:19:10;55.17;;;50.92;;
16354;SDS011;8287;51.644;8.494;2022-11-21T06:21:37;61.70;;;56.75;;
16354;SDS011;8287;51.644;8.494;2022-11-21T06:24:06;59.35;;;54.80;;
16354;SDS011;8287;51.644;8.494;2022-11-21T06:26:33;58.72;;;54.17;;
16354;SDS011;8287;51.644;8.494;2022-11-21T06:29:00;50.72;;;46.50;;
16354;SDS011;8287;51.644;8.494;2022-11-21T06:31:26;54.20;;;50.38;;
16354;SDS011;8287;51.644;8.494;2022-11-21T06:33:54;54.58;;;50.58;;
16354;SDS011;8287;51.644;8.494;2022-11-21T06:36:22;58.13;;;53.10;;
16354;SDS011;8287;51.644;8.494;2022-11-21T06:38:49;134.32;;;126.88;;
16354;SDS011;8287;51.644;8.494;2022-11-21T06:41:22;52.63;;;48.63;;
16354;SDS011;8287;51.644;8.494;2022-11-21T06:43:49;49.15;;;45.40;;
16354;SDS011;8287;51.644;8.494;2022-11-21T06:46:16;51.05;;;47.35;;
16354;SDS011;8287;51.644;8.494;2022-11-21T06:48:43;55.15;;;51.10;;
16354;SDS011;8287;51.644;8.494;2022-11-21T06:51:11;54.83;;;50.75;;
16354;SDS011;8287;51.644;8.494;2022-11-21T06:53:41;53.78;;;50.03;;
16354;SDS011;8287;51.644;8.494;2022-11-21T06:56:08;54.17;;;50.20;;
16354;SDS011;8287;51.644;8.494;2022-11-21T06:58:36;56.75;;;52.25;;
16354;SDS011;8287;51.644;8.494;2022-11-21T07:01:03;52.60;;;48.88;;
16354;SDS011;8287;51.644;8.494;2022-11-21T07:03:31;57.40;;;52.97;;
16354;SDS011;8287;51.644;8.494;2022-11-21T07:05:58;55.97;;;52.15;;
16354;SDS011;8287;51.644;8.494;2022-11-21T07:08:25;57.55;;;53.13;;
16354;SDS011;8287;51.644;8.494;2022-11-21T07:10:52;61.05;;;56.53;;
16354;SDS011;8287;51.644;8.494;2022-11-21T07:13:19;59.25;;;54.78;;
16354;SDS011;8287;51.644;8.494;2022-11-21T07:15:52;53.08;;;48.53;;
16354;SDS011;8287;51.644;8.494;2022-11-21T07:18:20;54.42;;;50.15;;
16354;SDS011;8287;51.644;8.494;2022-11-21T07:20:48;61.47;;;56.70;;
16354;SDS011;8287;51.644;8.494;2022-11-21T07:23:14;53.88;;;49.53;;
16354;SDS011;8287;51.644;8.494;2022-11-21T07:25:41;63.08;;;58.03;;
16354;SDS011;8287;51.644;8.494;2022-11-21T07:28:08;67.47;;;62.45;;
16354;SDS011;8287;51.644;8.494;2022-11-21T07:30:35;76.70;;;70.88;;
16354;SDS011;8287;51.644;8.494;2022-11-21T07:33:03;78.57;;;72.60;;
16354;SDS011;8287;51.644;8.494;2022-11-21T07:35:31;64.05;;;58.83;;
16354;SDS011;8287;51.644;8.494;2022-11-21T07:37:59;65.55;;;60.33;;
16354;SDS011;8287;51.644;8.494;2022-11-21T07:40:25;69.38;;;64.35;;
16354;SDS011;8287;51.644;8.494;2022-11-21T07:42:53;69.43;;;64.30;;
16354;SDS011;8287;51.644;8.494;2022-11-21T07:45:19;70.13;;;64.20;;
16354;SDS011;8287;51.644;8.494;2022-11-21T07:47:46;200.02;;;187.73;;
16354;SDS011;8287;51.644;8.494;2022-11-21T07:50:14;212.55;;;199.50;;
16354;SDS011;8287;51.644;8.494;2022-11-21T07:52:41;120.65;;;113.03;;
16354;SDS011;8287;51.644;8.494;2022-11-21T07:55:07;101.05;;;94.00;;
16354;SDS011;8287;51.644;8.494;2022-11-21T07:57:34;288.10;;;272.10;;
16354;SDS011;8287;51.644;8.494;2022-11-21T08:00:01;175.70;;;165.60;;
16354;SDS011;8287;51.644;8.494;2022-11-21T08:02:28;152.15;;;141.68;;
16354;SDS011;8287;51.644;8.494;2022-11-21T08:04:55;215.43;;;203.35;;
16354;SDS011;8287;51.644;8.494;2022-11-21T08:07:23;208.75;;;196.52;;
16354;SDS011;8287;51.644;8.494;2022-11-21T08:09:49;185.48;;;174.57;;
16354;SDS011;8287;51.644;8.494;2022-11-21T08:12:16;160.60;;;150.27;;
16354;SDS011;8287;51.644;8.494;2022-11-21T08:14:43;223.90;;;210.57;;
16354;SDS011;8287;51.644;8.494;2022-11-21T08:17:09;141.23;;;130.80;;
16354;SDS011;8287;51.644;8.494;2022-11-21T08:19:36;136.63;;;126.82;;
16354;SDS011;8287;51.644;8.494;2022-11-21T08:22:02;221.82;;;208.07;;
16354;SDS011;8287;51.644;8.494;2022-11-21T08:24:30;157.00;;;146.13;;
16354;SDS011;8287;51.644;8.494;2022-11-21T08:26:57;147.00;;;136.98;;
16354;SDS011;8287;51.644;8.494;2022-11-21T08:29:24;201.90;;;190.65;;
16354;SDS011;8287;51.644;8.494;2022-11-21T08:31:51;154.85;;;143.68;;
16354;SDS011;8287;51.644;8.494;2022-11-21T08:34:17;162.98;;;152.63;;
16354;SDS011;8287;51.644;8.494;2022-11-21T08:36:44;139.57;;;128.65;;
16354;SDS011;8287;51.644;8.494;2022-11-21T08:39:10;128.18;;;117.15;;
16354;SDS011;8287;51.644;8.494;2022-11-21T08:41:39;128.13;;;117.45;;
16354;SDS011;8287;51.644;8.494;2022-11-21T08:44:23;126.05;;;117.15;;
16354;SDS011;8287;51.644;8.494;2022-11-21T08:46:49;136.38;;;126.22;;
16354;SDS011;8287;51.644;8.494;2022-11-21T08:49:16;130.27;;;121.03;;
16354;SDS011;8287;51.644;8.494;2022-11-21T08:51:42;133.85;;;122.90;;
16354;SDS011;8287;51.644;8.494;2022-11-21T08:54:09;128.80;;;120.05;;
16354;SDS011;8287;51.644;8.494;2022-11-21T08:56:36;137.60;;;128.18;;
16354;SDS011;8287;51.644;8.494;2022-11-21T08:59:04;130.93;;;121.80;;
16354;SDS011;8287;51.644;8.494;2022-11-21T09:01:30;140.00;;;130.82;;
16354;SDS011;8287;51.644;8.494;2022-11-21T09:03:57;159.48;;;149.38;;
16354;SDS011;8287;51.644;8.494;2022-11-21T09:06:23;169.82;;;158.25;;
16354;SDS011;8287;51.644;8.494;2022-11-21T09:08:50;162.82;;;153.18;;
16354;SDS011;8287;51.644;8.494;2022-11-21T09:11:17;184.93;;;172.57;;
16354;SDS011;8287;51.644;8.494;2022-11-21T09:13:43;218.10;;;206.38;;
16354;SDS011;8287;51.644;8.494;2022-11-21T09:16:32;181.70;;;170.27;;
16354;SDS011;8287;51.644;8.494;2022-11-21T09:19:16;169.98;;;159.30;;
16354;SDS011;8287;51.644;8.494;2022-11-21T09:21:42;198.82;;;188.10;;
16354;SDS011;8287;51.644;8.494;2022-11-21T09:24:09;160.07;;;149.85;;
16354;SDS011;8287;51.644;8.494;2022-11-21T09:26:36;149.55;;;140.20;;
16354;SDS011;8287;51.644;8.494;2022-11-21T09:29:02;175.02;;;165.00;;
16354;SDS011;8287;51.644;8.494;2022-11-21T09:31:29;161.95;;;151.82;;
16354;SDS011;8287;51.644;8.494;2022-11-21T09:33:57;230.32;;;218.02;;
16354;SDS011;8287;51.644;8.494;2022-11-21T09:36:23;208.73;;;197.52;;
16354;SDS011;8287;51.644;8.494;2022-11-21T09:38:50;189.38;;;179.00;;
16354;SDS011;8287;51.644;8.494;2022-11-21T09:41:20;181.82;;;170.90;;
16354;SDS011;8287;51.644;8.494;2022-11-21T09:44:16;183.05;;;172.80;;
16354;SDS011;8287;51.644;8.494;2022-11-21T09:46:54;175.02;;;165.30;;
16354;SDS011;8287;51.644;8.494;2022-11-21T09:49:30;298.10;;;283.02;;
16354;SDS011;8287;51.644;8.494;2022-11-21T09:52:04;205.55;;;194.35;;
16354;SDS011;8287;51.644;8.494;2022-11-21T09:54:32;179.82;;;168.82;;
16354;SDS011;8287;51.644;8.494;2022-11-21T09:57:04;203.18;;;191.77;;
16354;SDS011;8287;51.644;8.494;2022-11-21T09:59:31;181.88;;;170.73;;
16354;SDS011;8287;51.644;8.494;2022-11-21T10:02:00;162.55;;;152.32;;
16354;SDS011;8287;51.644;8.494;2022-11-21T10:04:27;176.45;;;166.55;;
16354;SDS011;8287;51.644;8.494;2022-11-21T10:06:59;169.52;;;159.07;;
16354;SDS011;8287;51.644;8.494;2022-11-21T10:09:41;213.57;;;202.45;;
16354;SDS011;8287;51.644;8.494;2022-11-21T10:12:29;173.88;;;163.70;;
16354;SDS011;8287;51.644;8.494;2022-11-21T10:15:02;162.88;;;153.20;;
16354;SDS011;8287;51.644;8.494;2022-11-21T10:17:55;215.93;;;204.77;;
16354;SDS011;8287;51.644;8.494;2022-11-21T10:20:32;315.30;;;300.50;;
16354;SDS011;8287;51.644;8.494;2022-11-21T10:23:17;233.40;;;221.32;;
16354;SDS011;8287;51.644;8.494;2022-11-21T10:25:55;203.00;;;191.25;;
16354;SDS011;8287;51.644;8.494;2022-11-21T10:28:30;182.90;;;173.40;;
16354;SDS011;8287;51.644;8.494;2022-11-21T10:31:03;210.27;;;198.70;;
16354;SDS011;8287;51.644;8.494;2022-11-21T10:33:36;193.90;;;184.00;;
16354;SDS011;8287;51.644;8.494;2022-11-21T10:36:06;168.60;;;160.07;;
16354;SDS011;8287;51.644;8.494;2022-11-21T10:38:46;161.95;;;153.38;;
16354;SDS011;8287;51.644;8.494;2022-11-21T10:41:16;176.85;;;167.45;;
16354;SDS011;8287;51.644;8.494;2022-11-21T10:43:46;161.35;;;153.35;;
16354;SDS011;8287;51.644;8.494;2022-11-21T10:46:33;151.52;;;143.80;;
16354;SDS011;8287;51.644;8.494;2022-11-21T10:49:00;131.85;;;124.78;;
16354;SDS011;8287;51.644;8.494;2022-11-21T10:51:33;173.00;;;164.07;;
16354;SDS011;8287;51.644;8.494;2022-11-21T10:54:09;153.35;;;145.27;;
16354;SDS011;8287;51.644;8.494;2022-11-21T10:56:57;164.02;;;155.32;;
16354;SDS011;8287;51.644;8.494;2022-11-21T10:59:27;146.02;;;139.02;;
16354;SDS011;8287;51.644;8.494;2022-11-21T11:01:55;148.23;;;141.07;;
16354;SDS011;8287;51.644;8.494;2022-11-21T11:04:24;158.88;;;151.05;;
16354;SDS011;8287;51.644;8.494;2022-11-21T11:06:51;160.77;;;152.60;;
16354;SDS011;8287;51.644;8.494;2022-11-21T11:09:23;117.15;;;111.13;;
16354;SDS011;8287;51.644;8.494;2022-11-21T11:11:52;124.22;;;117.78;;
16354;SDS011;8287;51.644;8.494;2022-11-21T11:14:29;129.40;;;122.57;;
16354;SDS011;8287;51.644;8.494;2022-11-21T11:16:57;125.95;;;119.18;;
16354;SDS011;8287;51.644;8.494;2022-11-21T11:19:25;113.85;;;107.93;;
16354;SDS011;8287;51.644;8.494;2022-11-21T11:21:53;120.70;;;114.40;;
16354;SDS011;8287;51.644;8.494;2022-11-21T11:24:23;130.93;;;124.35;;
16354;SDS011;8287;51.644;8.494;2022-11-21T11:26:56;121.35;;;114.97;;
16354;SDS011;8287;51.644;8.494;2022-11-21T11:29:25;121.22;;;115.13;;
16354;SDS011;8287;51.644;8.494;2022-11-21T11:31:55;60.08;;;56.60;;
16354;SDS011;8287;51.644;8.494;2022-11-21T11:34:25;84.68;;;79.93;;
16354;SDS011;8287;51.644;8.494;2022-11-21T11:37:04;60.58;;;57.38;;
16354;SDS011;8287;51.644;8.494;2022-11-21T11:39:39;50.85;;;48.00;;
16354;SDS011;8287;51.644;8.494;2022-11-21T11:45:47;52.67;;;49.72;;
16354;SDS011;8287;51.644;8.494;2022-11-21T11:48:38;81.80;;;77.45;;
16354;SDS011;8287;51.644;8.494;2022-11-21T11:51:08;47.05;;;44.22;;
16354;SDS011;8287;51.644;8.494;2022-11-21T11:53:44;52.65;;;49.58;;
16354;SDS011;8287;51.644;8.494;2022-11-21T11:56:16;59.45;;;56.03;;
16354;SDS011;8287;51.644;8.494;2022-11-21T11:58:48;64.45;;;61.03;;
16354;SDS011;8287;51.644;8.494;2022-11-21T12:01:18;62.78;;;59.40;;
16354;SDS011;8287;51.644;8.494;2022-11-21T12:03:53;81.07;;;76.70;;
16354;SDS011;8287;51.644;8.494;2022-11-21T12:06:24;53.35;;;49.90;;
16354;SDS011;8287;51.644;8.494;2022-11-21T12:08:57;97.75;;;92.75;;
16354;SDS011;8287;51.644;8.494;2022-11-21T12:11:31;89.93;;;85.03;;
16354;SDS011;8287;51.644;8.494;2022-11-21T12:14:31;90.28;;;85.78;;
16354;SDS011;8287;51.644;8.494;2022-11-21T12:17:20;91.30;;;86.15;;
16354;SDS011;8287;51.644;8.494;2022-11-21T12:19:52;61.08;;;57.15;;
16354;SDS011;8287;51.644;8.494;2022-11-21T12:22:20;55.15;;;51.17;;
16354;SDS011;8287;51.644;8.494;2022-11-21T12:24:47;88.50;;;83.78;;
16354;SDS011;8287;51.644;8.494;2022-11-21T12:27:22;89.70;;;84.80;;
16354;SDS011;8287;51.644;8.494;2022-11-21T12:30:04;98.03;;;92.85;;
16354;SDS011;8287;51.644;8.494;2022-11-21T12:32:47;101.10;;;95.85;;
16354;SDS011;8287;51.644;8.494;2022-11-21T12:35:34;91.97;;;86.65;;
16354;SDS011;8287;51.644;8.494;2022-11-21T12:38:24;87.38;;;82.72;;
16354;SDS011;8287;51.644;8.494;2022-11-21T12:41:06;93.60;;;88.78;;
16354;SDS011;8287;51.644;8.494;2022-11-21T12:44:15;83.13;;;78.43;;
16354;SDS011;8287;51.644;8.494;2022-11-21T12:46:59;86.32;;;80.97;;
16354;SDS011;8287;51.644;8.494;2022-11-21T12:49:36;89.22;;;83.93;;
16354;SDS011;8287;51.644;8.494;2022-11-21T12:52:29;96.68;;;90.97;;
16354;SDS011;8287;51.644;8.494;2022-11-21T12:55:21;85.68;;;80.10;;
16354;SDS011;8287;51.644;8.494;2022-11-21T12:58:08;99.72;;;93.30;;
16354;SDS011;8287;51.644;8.494;2022-11-21T13:00:50;84.65;;;80.00;;
16354;SDS011;8287;51.644;8.494;2022-11-21T13:03:32;75.18;;;70.70;;
16354;SDS011;8287;51.644;8.494;2022-11-21T13:06:10;122.00;;;115.10;;
16354;SDS011;8287;51.644;8.494;2022-11-21T13:08:40;94.35;;;89.20;;
16354;SDS011;8287;51.644;8.494;2022-11-21T13:11:08;114.95;;;108.22;;
16354;SDS011;8287;51.644;8.494;2022-11-21T13:14:01;84.22;;;79.53;;
16354;SDS011;8287;51.644;8.494;2022-11-21T13:16:33;64.95;;;60.90;;
16354;SDS011;8287;51.644;8.494;2022-11-21T13:19:10;156.38;;;148.88;;
16354;SDS011;8287;51.644;8.494;2022-11-21T13:21:43;144.80;;;137.30;;
16354;SDS011;8287;51.644;8.494;2022-11-21T13:24:12;101.97;;;96.28;;
16354;SDS011;8287;51.644;8.494;2022-11-21T13:27:26;108.38;;;102.05;;
16354;SDS011;8287;51.644;8.494;2022-11-21T13:32:45;83.75;;;78.50;;
16354;SDS011;8287;51.644;8.494;2022-11-21T13:38:19;86.18;;;80.40;;
16354;SDS011;8287;51.644;8.494;2022-11-21T13:40:45;110.72;;;104.32;;
16354;SDS011;8287;51.644;8.494;2022-11-21T13:43:26;77.43;;;72.43;;
16354;SDS011;8287;51.644;8.494;2022-11-21T13:45:52;103.93;;;98.47;;
16354;SDS011;8287;51.644;8.494;2022-11-21T13:51:30;76.85;;;72.10;;
16354;SDS011;8287;51.644;8.494;2022-11-21T13:57:00;71.40;;;67.07;;
16354;SDS011;8287;51.644;8.494;2022-11-21T13:59:42;75.90;;;71.28;;
16354;SDS011;8287;51.644;8.494;2022-11-21T14:02:27;77.00;;;71.75;;
16354;SDS011;8287;51.644;8.494;2022-11-21T14:05:16;78.43;;;73.18;;
16354;SDS011;8287;51.644;8.494;2022-11-21T14:08:10;79.68;;;74.53;;
16354;SDS011;8287;51.644;8.494;2022-11-21T14:10:39;86.70;;;81.07;;
16354;SDS011;8287;51.644;8.494;2022-11-21T14:13:13;79.43;;;73.93;;
16354;SDS011;8287;51.644;8.494;2022-11-21T14:15:45;80.13;;;74.88;;
16354;SDS011;8287;51.644;8.494;2022-11-21T14:18:23;120.47;;;114.30;;
16354;SDS011;8287;51.644;8.494;2022-11-21T14:20:52;99.00;;;93.18;;
16354;SDS011;8287;51.644;8.494;2022-11-21T14:23:21;81.55;;;75.82;;
16354;SDS011;8287;51.644;8.494;2022-11-21T14:25:52;85.35;;;79.78;;
16354;SDS011;8287;51.644;8.494;2022-11-21T14:28:21;89.05;;;82.70;;
16354;SDS011;8287;51.644;8.494;2022-11-21T14:30:54;73.20;;;68.35;;
16354;SDS011;8287;51.644;8.494;2022-11-21T14:33:26;93.43;;;87.78;;
16354;SDS011;8287;51.644;8.494;2022-11-21T14:35:56;87.75;;;82.25;;
16354;SDS011;8287;51.644;8.494;2022-11-21T14:38:26;74.25;;;69.30;;
16354;SDS011;8287;51.644;8.494;2022-11-21T14:43:47;82.22;;;77.15;;
16354;SDS011;8287;51.644;8.494;2022-11-21T14:46:14;73.82;;;68.68;;
16354;SDS011;8287;51.644;8.494;2022-11-21T14:48:41;97.60;;;92.38;;
16354;SDS011;8287;51.644;8.494;2022-11-21T14:51:09;84.03;;;78.55;;
16354;SDS011;8287;51.644;8.494;2022-11-21T14:53:40;85.63;;;80.47;;
16354;SDS011;8287;51.644;8.494;2022-11-21T14:56:08;74.22;;;69.35;;
16354;SDS011;8287;51.644;8.494;2022-11-21T14:58:37;119.55;;;111.97;;
16354;SDS011;8287;51.644;8.494;2022-11-21T15:01:06;90.57;;;84.88;;
16354;SDS011;8287;51.644;8.494;2022-11-21T15:03:52;82.88;;;77.32;;
16354;SDS011;8287;51.644;8.494;2022-11-21T15:06:21;88.07;;;81.70;;